Time;durP1;ratioP1;P1;durP2;ratioP2;P2;SDS_P1;SDS_P2;PMS_P1;PMS_P2;Temp;Humidity;BMP_temperature;BMP_pressure;BME280_temperature;BME280_humidity;BME280_pressure;Samples;Min_cycle;Max_cycle;Signal;HPM_P1;HPM_P2
2022/05/09 00:00:07;;;;;;;22.33;4.75;;;;;;;;;;5053008;28;20025;-74
2022/05/09 00:02:33;;;;;;;21.05;3.85;;;;;;;;;;5050461;28;20491;-74
2022/05/09 00:05:00;;;;;;;20.20;3.97;;;;;;;;;;5049855;28;20147;-73
2022/05/09 00:07:26;;;;;;;24.73;3.42;;;;;;;;;;5046472;28;20040;-73
2022/05/09 00:09:52;;;;;;;16.13;4.00;;;;;;;;;;5042366;28;20511;-73
2022/05/09 00:12:18;;;;;;;13.30;3.50;;;;;;;;;;5046713;28;20060;-73
2022/05/09 00:14:44;;;;;;;19.60;3.58;;;;;;;;;;5045429;28;20071;-73
2022/05/09 00:17:11;;;;;;;21.92;3.45;;;;;;;;;;5050687;28;20020;-73
2022/05/09 00:19:37;;;;;;;17.35;3.50;;;;;;;;;;5049305;28;20039;-74
2022/05/09 00:22:03;;;;;;;15.88;3.28;;;;;;;;;;5046033;28;20072;-73
2022/05/09 00:24:29;;;;;;;15.23;3.50;;;;;;;;;;5047224;28;20033;-73
2022/05/09 00:26:57;;;;;;;14.18;3.05;;;;;;;;;;5051801;28;20043;-73
2022/05/09 00:29:23;;;;;;;10.93;3.47;;;;;;;;;;5028846;28;20503;-73
2022/05/09 00:31:50;;;;;;;13.63;3.60;;;;;;;;;;5042916;28;20465;-73
2022/05/09 00:34:17;;;;;;;18.85;3.40;;;;;;;;;;5044107;28;20033;-73
2022/05/09 00:36:43;;;;;;;22.67;3.83;;;;;;;;;;5044916;28;20108;-73
2022/05/09 00:39:09;;;;;;;17.38;4.07;;;;;;;;;;5049758;28;20063;-73
2022/05/09 00:41:37;;;;;;;11.57;2.80;;;;;;;;;;5052214;28;20029;-73
2022/05/09 00:44:09;;;;;;;13.88;3.15;;;;;;;;;;5052460;28;20075;-73
2022/05/09 00:46:36;;;;;;;17.77;3.95;;;;;;;;;;5051201;28;20059;-73
2022/05/09 00:49:05;;;;;;;13.73;3.08;;;;;;;;;;5041277;28;20032;-73
2022/05/09 00:51:34;;;;;;;15.57;3.88;;;;;;;;;;5039232;28;20116;-73
2022/05/09 00:54:02;;;;;;;14.98;2.85;;;;;;;;;;5042875;28;20068;-73
2022/05/09 00:56:33;;;;;;;14.60;3.38;;;;;;;;;;5032419;28;20130;-73
2022/05/09 00:59:00;;;;;;;18.38;3.10;;;;;;;;;;5050503;28;20044;-73
2022/05/09 01:01:27;;;;;;;15.80;4.22;;;;;;;;;;5052852;28;20029;-73
2022/05/09 01:04:02;;;;;;;14.27;3.15;;;;;;;;;;5050450;28;20025;-73
2022/05/09 01:06:28;;;;;;;17.70;3.40;;;;;;;;;;5046136;28;20057;-73
2022/05/09 01:08:54;;;;;;;14.98;3.35;;;;;;;;;;5036434;28;20033;-74
2022/05/09 01:11:22;;;;;;;13.52;2.88;;;;;;;;;;5034869;28;20110;-74
2022/05/09 01:13:52;;;;;;;18.48;3.35;;;;;;;;;;5051381;28;20033;-73
2022/05/09 01:16:18;;;;;;;12.32;3.05;;;;;;;;;;5035657;28;20488;-73
2022/05/09 01:18:45;;;;;;;15.13;4.43;;;;;;;;;;5023002;28;20440;-73
2022/05/09 01:21:44;;;;;;;13.43;3.53;;;;;;;;;;5043267;28;20074;-73
2022/05/09 01:24:18;;;;;;;11.93;2.67;;;;;;;;;;4985896;28;20048;-73
2022/05/09 01:26:44;;;;;;;13.48;4.38;;;;;;;;;;5049466;28;20040;-73
2022/05/09 01:29:20;;;;;;;12.48;3.00;;;;;;;;;;5033860;28;20037;-73
2022/05/09 01:31:46;;;;;;;11.27;3.30;;;;;;;;;;5050828;28;20044;-73
2022/05/09 01:34:15;;;;;;;16.35;3.60;;;;;;;;;;5047551;28;20112;-73
2022/05/09 01:36:42;;;;;;;13.32;4.30;;;;;;;;;;5045938;28;20060;-73
2022/05/09 01:39:10;;;;;;;20.15;4.15;;;;;;;;;;5028401;28;20085;-73
2022/05/09 01:41:41;;;;;;;16.25;3.42;;;;;;;;;;5047576;28;20037;-73
2022/05/09 01:44:07;;;;;;;15.32;4.07;;;;;;;;;;5046865;28;20055;-73
2022/05/09 01:46:34;;;;;;;12.32;3.50;;;;;;;;;;5047032;28;20033;-73
2022/05/09 01:51:46;;;;;;;14.15;4.07;;;;;;;;;;5049046;28;20511;-73
2022/05/09 01:54:13;;;;;;;12.77;3.50;;;;;;;;;;5042718;28;20094;-73
2022/05/09 01:56:40;;;;;;;17.95;3.70;;;;;;;;;;5045281;28;20033;-73
2022/05/09 01:59:08;;;;;;;10.77;3.53;;;;;;;;;;5045193;28;20040;-73
2022/05/09 02:01:39;;;;;;;19.70;4.03;;;;;;;;;;5048502;28;20021;-73
2022/05/09 02:04:06;;;;;;;17.27;3.90;;;;;;;;;;5044772;28;20029;-73
2022/05/09 02:06:32;;;;;;;19.02;4.55;;;;;;;;;;5045828;28;20034;-73
2022/05/09 02:08:58;;;;;;;18.05;4.38;;;;;;;;;;5046795;28;20083;-73
2022/05/09 02:11:25;;;;;;;19.92;3.63;;;;;;;;;;5042773;28;20041;-73
2022/05/09 02:13:51;;;;;;;16.75;4.07;;;;;;;;;;5049175;28;20443;-73
2022/05/09 02:16:17;;;;;;;17.52;5.60;;;;;;;;;;5055328;28;20056;-73
2022/05/09 02:18:43;;;;;;;12.57;3.53;;;;;;;;;;5042768;28;20037;-74
2022/05/09 02:21:09;;;;;;;12.18;3.38;;;;;;;;;;5040272;28;20075;-73
2022/05/09 02:23:35;;;;;;;17.17;3.88;;;;;;;;;;5012850;28;20037;-73
2022/05/09 02:26:02;;;;;;;11.88;4.07;;;;;;;;;;5041061;28;20469;-73
2022/05/09 02:28:28;;;;;;;18.92;4.35;;;;;;;;;;5045041;28;20116;-73
2022/05/09 02:30:54;;;;;;;13.85;3.78;;;;;;;;;;5049763;28;20037;-73
2022/05/09 02:33:20;;;;;;;14.68;3.70;;;;;;;;;;5046701;28;20415;-73
2022/05/09 02:35:46;;;;;;;13.25;3.83;;;;;;;;;;5041633;28;20470;-73
2022/05/09 02:38:13;;;;;;;15.68;4.10;;;;;;;;;;5047333;28;21967;-73
2022/05/09 02:40:40;;;;;;;24.90;4.10;;;;;;;;;;5053825;28;20033;-73
2022/05/09 02:43:06;;;;;;;14.30;3.72;;;;;;;;;;5045335;28;20123;-74
2022/05/09 02:45:33;;;;;;;11.38;3.30;;;;;;;;;;5042131;28;20115;-74
2022/05/09 02:47:59;;;;;;;15.38;4.07;;;;;;;;;;5052180;28;20522;-74
2022/05/09 02:50:26;;;;;;;14.80;3.17;;;;;;;;;;5042442;28;20052;-73
2022/05/09 02:52:53;;;;;;;11.65;3.20;;;;;;;;;;5047277;28;20033;-74
2022/05/09 02:55:20;;;;;;;16.25;3.53;;;;;;;;;;5043589;28;20401;-74
2022/05/09 02:57:46;;;;;;;16.13;3.47;;;;;;;;;;5032179;28;20255;-73
2022/05/09 03:00:14;;;;;;;16.65;3.67;;;;;;;;;;5046030;28;20029;-73
2022/05/09 03:02:40;;;;;;;11.65;3.17;;;;;;;;;;5053080;28;20112;-73
2022/05/09 03:05:07;;;;;;;15.85;4.25;;;;;;;;;;5051676;28;20126;-74
2022/05/09 03:07:33;;;;;;;14.05;3.70;;;;;;;;;;5043802;28;20061;-73
2022/05/09 03:10:00;;;;;;;16.08;3.45;;;;;;;;;;5044768;28;20033;-74
2022/05/09 03:12:26;;;;;;;12.82;3.00;;;;;;;;;;5044838;28;20049;-74
2022/05/09 03:14:52;;;;;;;9.10;3.53;;;;;;;;;;5026581;28;20029;-73
2022/05/09 03:17:19;;;;;;;15.38;3.63;;;;;;;;;;5038140;28;20118;-74
2022/05/09 03:19:45;;;;;;;16.30;5.35;;;;;;;;;;5048824;28;20044;-74
2022/05/09 03:22:12;;;;;;;12.90;3.75;;;;;;;;;;5036969;28;20036;-74
2022/05/09 03:24:38;;;;;;;13.90;3.60;;;;;;;;;;5050512;28;20033;-74
2022/05/09 03:27:06;;;;;;;14.77;4.15;;;;;;;;;;5051788;28;20044;-73
2022/05/09 03:29:32;;;;;;;15.05;4.63;;;;;;;;;;5048055;28;20048;-73
2022/05/09 03:31:58;;;;;;;13.95;3.45;;;;;;;;;;5054543;28;20082;-73
2022/05/09 03:34:24;;;;;;;14.10;3.72;;;;;;;;;;5047668;28;20029;-73
2022/05/09 03:36:51;;;;;;;12.15;3.88;;;;;;;;;;5046014;28;20028;-73
2022/05/09 03:39:18;;;;;;;14.10;3.17;;;;;;;;;;5042558;28;20030;-73
2022/05/09 03:41:44;;;;;;;19.92;6.20;;;;;;;;;;5049793;28;20043;-72
2022/05/09 03:44:10;;;;;;;13.05;4.50;;;;;;;;;;5050555;28;20025;-72
2022/05/09 03:46:36;;;;;;;15.02;3.80;;;;;;;;;;5028448;28;20033;-72
2022/05/09 03:49:04;;;;;;;17.50;3.83;;;;;;;;;;5051291;28;20049;-73
2022/05/09 03:51:30;;;;;;;14.57;4.05;;;;;;;;;;5032263;28;20029;-72
2022/05/09 03:53:56;;;;;;;11.48;3.88;;;;;;;;;;5044293;28;20508;-72
2022/05/09 03:56:22;;;;;;;17.40;4.53;;;;;;;;;;5047274;28;20035;-73
2022/05/09 03:58:48;;;;;;;11.77;5.63;;;;;;;;;;5035285;28;20033;-73
2022/05/09 04:01:14;;;;;;;12.55;3.65;;;;;;;;;;5050581;28;20040;-73
2022/05/09 04:03:41;;;;;;;15.23;4.03;;;;;;;;;;5041355;28;20426;-73
2022/05/09 04:06:07;;;;;;;8.07;3.60;;;;;;;;;;5042206;28;20037;-73
2022/05/09 04:08:33;;;;;;;16.02;4.45;;;;;;;;;;5048380;28;20087;-73
2022/05/09 04:11:00;;;;;;;10.23;4.22;;;;;;;;;;5049230;28;20455;-73
2022/05/09 04:13:26;;;;;;;18.30;4.90;;;;;;;;;;5048853;28;20033;-73
2022/05/09 04:18:39;;;;;;;17.27;4.07;;;;;;;;;;5047978;28;20147;-74
2022/05/09 04:21:05;;;;;;;13.20;4.13;;;;;;;;;;5037125;28;20029;-74
2022/05/09 04:23:31;;;;;;;13.55;4.32;;;;;;;;;;5046080;28;20033;-74
2022/05/09 04:25:57;;;;;;;14.05;4.10;;;;;;;;;;5048934;28;20049;-74
2022/05/09 04:28:23;;;;;;;11.20;4.07;;;;;;;;;;5045675;28;20040;-74
2022/05/09 04:30:50;;;;;;;15.55;5.70;;;;;;;;;;5048472;28;20168;-74
2022/05/09 04:33:16;;;;;;;19.45;4.45;;;;;;;;;;5049382;28;20029;-74
2022/05/09 04:35:42;;;;;;;12.82;4.30;;;;;;;;;;5050140;28;20039;-74
2022/05/09 04:38:13;;;;;;;16.42;4.65;;;;;;;;;;5046054;28;20512;-74
2022/05/09 04:40:40;;;;;;;14.25;3.75;;;;;;;;;;5047804;28;20029;-74
2022/05/09 04:43:06;;;;;;;13.27;5.20;;;;;;;;;;5050536;28;20024;-74
2022/05/09 04:45:33;;;;;;;15.63;4.75;;;;;;;;;;5051564;28;20086;-74
2022/05/09 04:47:59;;;;;;;14.13;4.43;;;;;;;;;;5037889;28;20033;-74
2022/05/09 04:50:26;;;;;;;13.23;4.90;;;;;;;;;;5041432;28;20036;-71
2022/05/09 04:52:52;;;;;;;16.58;5.18;;;;;;;;;;5037703;28;20042;-70
2022/05/09 04:55:19;;;;;;;17.63;5.25;;;;;;;;;;5047177;28;20090;-72
2022/05/09 04:57:45;;;;;;;13.38;3.92;;;;;;;;;;5047361;28;20033;-72
2022/05/09 05:00:14;;;;;;;17.95;4.60;;;;;;;;;;5031797;28;20094;-73
2022/05/09 05:02:40;;;;;;;19.55;5.10;;;;;;;;;;5048795;28;20044;-72
2022/05/09 05:05:06;;;;;;;27.70;11.48;;;;;;;;;;5042248;28;20021;-76
2022/05/09 05:07:32;;;;;;;30.30;8.68;;;;;;;;;;5048957;28;20241;-75
2022/05/09 05:09:58;;;;;;;23.13;10.93;;;;;;;;;;5045912;28;20069;-75
2022/05/09 05:12:24;;;;;;;17.85;6.20;;;;;;;;;;5040956;28;20057;-76
2022/05/09 05:14:50;;;;;;;19.52;5.82;;;;;;;;;;5040533;28;20025;-72
2022/05/09 05:17:17;;;;;;;18.00;5.93;;;;;;;;;;5034608;28;20102;-73
2022/05/09 05:19:44;;;;;;;25.25;7.25;;;;;;;;;;5041564;28;20043;-73
2022/05/09 05:22:12;;;;;;;19.52;5.38;;;;;;;;;;5047591;28;20037;-74
2022/05/09 05:24:41;;;;;;;18.58;5.90;;;;;;;;;;5047848;28;20063;-73
2022/05/09 05:27:07;;;;;;;18.02;6.47;;;;;;;;;;5043702;28;20028;-74
2022/05/09 05:29:33;;;;;;;18.80;6.75;;;;;;;;;;5049635;28;20483;-74
2022/05/09 05:31:59;;;;;;;38.15;12.00;;;;;;;;;;5032007;28;20036;-74
2022/05/09 05:34:25;;;;;;;25.05;9.95;;;;;;;;;;5040727;28;20033;-72
2022/05/09 05:36:51;;;;;;;36.22;15.60;;;;;;;;;;5042569;28;20033;-74
2022/05/09 05:39:21;;;;;;;18.63;6.22;;;;;;;;;;5045015;28;20075;-72
2022/05/09 05:41:47;;;;;;;17.35;5.63;;;;;;;;;;5047253;28;20037;-73
2022/05/09 05:44:13;;;;;;;18.02;5.82;;;;;;;;;;5048920;28;20040;-73
2022/05/09 05:46:40;;;;;;;18.33;5.20;;;;;;;;;;5040102;28;20060;-73
2022/05/09 05:49:06;;;;;;;13.77;4.68;;;;;;;;;;5046637;28;20112;-73
2022/05/09 05:51:32;;;;;;;16.92;5.68;;;;;;;;;;5045612;28;20037;-73
2022/05/09 05:53:58;;;;;;;18.92;5.25;;;;;;;;;;5048244;28;20029;-73
2022/05/09 05:56:25;;;;;;;17.85;5.47;;;;;;;;;;5048553;28;20493;-73
2022/05/09 05:58:51;;;;;;;18.83;5.22;;;;;;;;;;5041718;28;20051;-73
2022/05/09 06:01:18;;;;;;;21.90;5.20;;;;;;;;;;5046383;28;20047;-73
2022/05/09 06:03:44;;;;;;;15.00;5.65;;;;;;;;;;5047529;28;20063;-73
2022/05/09 06:06:10;;;;;;;23.33;6.03;;;;;;;;;;5031578;28;20404;-73
2022/05/09 06:08:40;;;;;;;22.20;5.38;;;;;;;;;;5040647;28;20025;-73
2022/05/09 06:11:06;;;;;;;16.88;6.20;;;;;;;;;;5048261;28;20099;-73
2022/05/09 06:13:34;;;;;;;16.98;5.55;;;;;;;;;;5053026;28;20033;-73
2022/05/09 06:16:00;;;;;;;17.67;6.15;;;;;;;;;;5052976;28;20110;-74
2022/05/09 06:18:26;;;;;;;23.55;5.80;;;;;;;;;;5049334;28;20037;-73
2022/05/09 06:20:52;;;;;;;23.52;7.10;;;;;;;;;;5052181;28;20428;-73
2022/05/09 06:23:19;;;;;;;16.40;5.25;;;;;;;;;;5050747;28;20033;-74
2022/05/09 06:25:46;;;;;;;22.05;6.32;;;;;;;;;;5036883;28;20036;-74
2022/05/09 06:28:14;;;;;;;17.20;4.82;;;;;;;;;;5051709;28;20404;-75
2022/05/09 06:30:41;;;;;;;15.52;4.15;;;;;;;;;;5053108;28;21564;-74
2022/05/09 06:33:07;;;;;;;16.25;5.90;;;;;;;;;;5046720;28;20461;-75
2022/05/09 06:35:38;;;;;;;28.77;6.57;;;;;;;;;;5050108;28;20452;-74
2022/05/09 06:38:05;;;;;;;24.55;7.70;;;;;;;;;;5048604;28;20100;-74
2022/05/09 06:40:32;;;;;;;18.23;3.92;;;;;;;;;;5047004;28;20037;-72
2022/05/09 06:42:58;;;;;;;18.85;4.35;;;;;;;;;;5033711;28;20025;-75
2022/05/09 06:45:24;;;;;;;18.58;4.40;;;;;;;;;;5052289;28;20043;-74
2022/05/09 06:47:52;;;;;;;15.35;4.32;;;;;;;;;;5052904;28;20516;-74
2022/05/09 06:50:19;;;;;;;16.38;4.68;;;;;;;;;;5052275;28;20029;-74
2022/05/09 06:52:45;;;;;;;19.55;5.25;;;;;;;;;;5029781;28;20099;-73
2022/05/09 06:55:12;;;;;;;16.67;3.97;;;;;;;;;;5045388;28;20029;-73
2022/05/09 06:57:39;;;;;;;18.48;4.55;;;;;;;;;;5052249;28;20036;-73
2022/05/09 07:00:09;;;;;;;18.45;4.38;;;;;;;;;;5035456;28;20041;-73
2022/05/09 07:02:36;;;;;;;14.52;3.90;;;;;;;;;;5048732;28;20051;-73
2022/05/09 07:05:06;;;;;;;15.68;3.88;;;;;;;;;;5053134;28;20040;-73
2022/05/09 07:07:32;;;;;;;12.63;3.75;;;;;;;;;;5049410;28;20091;-73
2022/05/09 07:09:58;;;;;;;16.27;3.97;;;;;;;;;;5051100;28;20045;-73
2022/05/09 07:12:24;;;;;;;10.07;3.25;;;;;;;;;;5048360;28;20783;-73
2022/05/09 07:14:50;;;;;;;23.30;4.32;;;;;;;;;;5024825;28;20462;-73
2022/05/09 07:17:16;;;;;;;19.98;9.27;;;;;;;;;;5041796;28;20021;-75
2022/05/09 07:19:43;;;;;;;19.45;6.82;;;;;;;;;;5049118;28;20232;-75
2022/05/09 07:22:09;;;;;;;19.35;4.75;;;;;;;;;;5050835;28;20021;-73
2022/05/09 07:24:35;;;;;;;13.82;3.75;;;;;;;;;;5047970;28;20036;-73
2022/05/09 07:27:01;;;;;;;17.50;3.80;;;;;;;;;;5046592;28;20029;-74
2022/05/09 07:29:27;;;;;;;14.45;3.63;;;;;;;;;;5035664;28;20033;-73
2022/05/09 07:34:57;;;;;;;14.10;3.22;;;;;;;;;;5050966;28;20044;-76
2022/05/09 07:37:23;;;;;;;13.70;3.72;;;;;;;;;;5047578;28;20033;-74
2022/05/09 07:39:49;;;;;;;15.13;3.80;;;;;;;;;;5033556;28;20072;-74
2022/05/09 07:42:15;;;;;;;16.95;3.30;;;;;;;;;;5052614;28;20033;-74
2022/05/09 07:44:41;;;;;;;14.23;4.35;;;;;;;;;;5038348;28;20041;-74
2022/05/09 07:47:09;;;;;;;16.45;3.67;;;;;;;;;;5047705;28;20029;-74
2022/05/09 07:49:35;;;;;;;14.73;3.38;;;;;;;;;;5027354;28;20041;-74
2022/05/09 07:52:02;;;;;;;16.27;3.92;;;;;;;;;;5052774;28;20025;-75
2022/05/09 07:54:28;;;;;;;11.05;3.08;;;;;;;;;;5043047;28;20029;-75
2022/05/09 07:56:54;;;;;;;14.75;3.50;;;;;;;;;;5040925;28;20032;-74
2022/05/09 07:59:21;;;;;;;17.10;3.72;;;;;;;;;;5031847;28;20033;-74
2022/05/09 08:01:47;;;;;;;12.55;3.15;;;;;;;;;;5052191;28;20404;-75
2022/05/09 08:04:13;;;;;;;9.90;3.17;;;;;;;;;;5045743;28;20513;-74
2022/05/09 08:06:39;;;;;;;13.48;3.17;;;;;;;;;;5050863;28;20040;-75
2022/05/09 08:09:05;;;;;;;15.25;5.43;;;;;;;;;;5049458;28;20036;-78
2022/05/09 08:11:31;;;;;;;22.05;9.23;;;;;;;;;;5050414;28;20053;-79
2022/05/09 08:13:58;;;;;;;16.50;6.15;;;;;;;;;;5031973;28;20037;-75
2022/05/09 08:16:27;;;;;;;13.85;3.28;;;;;;;;;;5035119;28;20481;-75
2022/05/09 08:18:53;;;;;;;11.27;3.15;;;;;;;;;;5046662;28;20044;-73
2022/05/09 08:21:19;;;;;;;15.15;3.33;;;;;;;;;;5017023;28;20037;-75
2022/05/09 08:23:46;;;;;;;14.88;4.15;;;;;;;;;;5045937;28;20447;-74
2022/05/09 08:26:13;;;;;;;13.02;3.05;;;;;;;;;;5048420;28;20037;-74
2022/05/09 08:28:39;;;;;;;10.40;3.08;;;;;;;;;;5051865;28;20430;-74
2022/05/09 08:31:05;;;;;;;10.27;3.10;;;;;;;;;;5046547;28;20128;-74
2022/05/09 08:33:32;;;;;;;10.27;2.53;;;;;;;;;;5050971;28;20036;-73
2022/05/09 08:35:58;;;;;;;12.02;2.97;;;;;;;;;;5041919;28;20120;-74
2022/05/09 08:38:24;;;;;;;9.52;2.75;;;;;;;;;;5025517;28;20099;-74
2022/05/09 08:41:08;;;;;;;12.38;2.67;;;;;;;;;;5041621;28;20127;-74
2022/05/09 08:43:44;;;;;;;9.55;2.60;;;;;;;;;;5050133;28;20090;-73
2022/05/09 08:46:10;;;;;;;11.75;2.55;;;;;;;;;;5057798;28;20107;-73
2022/05/09 08:49:02;;;;;;;10.50;3.65;;;;;;;;;;5045531;28;20369;-74
2022/05/09 08:51:28;;;;;;;12.95;2.72;;;;;;;;;;5045027;28;20049;-73
2022/05/09 08:54:00;;;;;;;8.60;2.25;;;;;;;;;;5048874;28;20033;-74
2022/05/09 08:56:27;;;;;;;11.27;2.55;;;;;;;;;;5045595;28;20036;-74
2022/05/09 08:59:00;;;;;;;11.68;2.83;;;;;;;;;;5041799;28;20464;-75
2022/05/09 09:01:38;;;;;;;9.82;3.00;;;;;;;;;;5053182;28;20091;-72
2022/05/09 09:04:13;;;;;;;12.10;2.97;;;;;;;;;;5045421;28;20090;-74
2022/05/09 09:06:39;;;;;;;12.77;6.50;;;;;;;;;;5046975;28;20428;-75
2022/05/09 09:09:11;;;;;;;11.50;2.70;;;;;;;;;;5036247;28;20028;-75
2022/05/09 09:11:49;;;;;;;11.15;2.78;;;;;;;;;;5042855;28;21772;-74
2022/05/09 09:14:33;;;;;;;10.52;2.70;;;;;;;;;;5044959;28;20036;-75
2022/05/09 09:17:25;;;;;;;8.10;2.53;;;;;;;;;;5038886;28;20029;-74
2022/05/09 09:20:10;;;;;;;6.57;2.10;;;;;;;;;;5019302;28;20048;-74
2022/05/09 09:22:54;;;;;;;11.15;2.60;;;;;;;;;;5046553;28;20386;-75
2022/05/09 09:25:28;;;;;;;11.95;2.38;;;;;;;;;;5032492;28;20488;-74
2022/05/09 09:28:04;;;;;;;8.38;2.38;;;;;;;;;;5033479;28;20385;-75
2022/05/09 09:30:32;;;;;;;7.65;1.95;;;;;;;;;;5047672;28;20495;-75
2022/05/09 09:32:59;;;;;;;7.30;2.10;;;;;;;;;;5050679;28;20033;-75
2022/05/09 09:35:35;;;;;;;8.55;2.10;;;;;;;;;;5045909;28;20275;-75
2022/05/09 09:38:14;;;;;;;6.05;2.47;;;;;;;;;;5040858;28;20067;-75
2022/05/09 09:40:41;;;;;;;8.82;2.20;;;;;;;;;;5041622;28;20036;-77
2022/05/09 09:43:07;;;;;;;10.02;2.17;;;;;;;;;;5042611;28;20034;-75
2022/05/09 09:45:40;;;;;;;9.18;2.22;;;;;;;;;;5026477;28;20517;-72
2022/05/09 09:48:06;;;;;;;9.02;2.80;;;;;;;;;;5033533;28;20029;-74
2022/05/09 09:50:32;;;;;;;12.05;2.30;;;;;;;;;;5043339;28;20554;-75
2022/05/09 09:52:59;;;;;;;15.00;2.50;;;;;;;;;;5049055;28;20465;-75
2022/05/09 09:55:33;;;;;;;6.80;2.30;;;;;;;;;;5038877;28;20074;-72
2022/05/09 09:58:19;;;;;;;8.73;1.90;;;;;;;;;;5030935;28;20032;-75
2022/05/09 10:00:45;;;;;;;10.57;2.22;;;;;;;;;;5037359;28;20048;-75
2022/05/09 10:03:28;;;;;;;9.25;2.10;;;;;;;;;;5057924;28;20033;-74
2022/05/09 10:05:56;;;;;;;9.63;1.95;;;;;;;;;;5029655;28;20025;-75
2022/05/09 10:08:25;;;;;;;7.65;2.33;;;;;;;;;;5032619;28;20055;-73
2022/05/09 10:11:02;;;;;;;10.80;2.85;;;;;;;;;;5044517;28;20029;-75
2022/05/09 10:13:46;;;;;;;7.38;1.80;;;;;;;;;;5050305;28;20032;-75
2022/05/09 10:16:21;;;;;;;9.73;2.50;;;;;;;;;;5057955;28;20020;-75
2022/05/09 10:18:50;;;;;;;10.30;2.50;;;;;;;;;;5042320;28;20029;-75
2022/05/09 10:26:56;;;;;;;14.55;6.85;;;;;;;;;;5042693;28;20104;-76
2022/05/09 10:29:23;;;;;;;9.38;1.95;;;;;;;;;;5044481;28;20025;-75
2022/05/09 10:31:53;;;;;;;9.32;2.30;;;;;;;;;;5055457;28;20013;-74
2022/05/09 10:34:49;;;;;;;12.60;2.67;;;;;;;;;;5045840;28;20078;-74
2022/05/09 10:37:24;;;;;;;11.40;1.92;;;;;;;;;;5021646;28;20060;-79
2022/05/09 10:39:53;;;;;;;10.57;2.50;;;;;;;;;;5018505;28;20033;-79
2022/05/09 10:42:24;;;;;;;9.38;2.10;;;;;;;;;;5034322;28;20029;-79
2022/05/09 10:44:53;;;;;;;3.72;1.40;;;;;;;;;;5054633;28;20053;-79
2022/05/09 10:47:25;;;;;;;10.98;2.78;;;;;;;;;;5073380;28;20025;-80
2022/05/09 10:49:54;;;;;;;9.88;2.00;;;;;;;;;;5045984;28;20040;-80
2022/05/09 10:52:34;;;;;;;10.65;1.98;;;;;;;;;;5060478;28;20085;-80
2022/05/09 10:55:04;;;;;;;10.45;1.83;;;;;;;;;;5057244;28;20021;-79
2022/05/09 10:57:32;;;;;;;11.80;2.35;;;;;;;;;;5042741;28;20025;-80
2022/05/09 11:00:09;;;;;;;7.43;2.13;;;;;;;;;;5053761;28;20572;-80
2022/05/09 11:02:40;;;;;;;11.77;2.65;;;;;;;;;;5038086;28;20071;-80
2022/05/09 11:05:06;;;;;;;10.73;2.10;;;;;;;;;;5053965;28;20159;-81
2022/05/09 11:07:38;;;;;;;7.60;1.55;;;;;;;;;;5052529;28;20601;-81
2022/05/09 11:10:04;;;;;;;;;;;;;;;;;;5046793;28;20362;-81
2022/05/09 11:12:45;;;;;;;9.23;2.30;;;;;;;;;;5041543;28;19923;-81
2022/05/09 11:15:27;;;;;;;7.18;1.73;;;;;;;;;;5051700;28;20042;-81
2022/05/09 11:18:12;;;;;;;8.40;1.63;;;;;;;;;;5047366;28;20037;-81
2022/05/09 11:20:52;;;;;;;6.60;1.92;;;;;;;;;;5060626;28;20033;-79
2022/05/09 11:23:18;;;;;;;9.55;2.25;;;;;;;;;;5059545;28;20021;-80
2022/05/09 11:26:03;;;;;;;8.73;2.47;;;;;;;;;;5051576;28;20396;-80
2022/05/09 11:28:42;;;;;;;7.88;2.10;;;;;;;;;;5057895;28;20037;-80
2022/05/09 11:31:08;;;;;;;13.48;2.47;;;;;;;;;;5056874;28;20040;-80
2022/05/09 11:33:46;;;;;;;9.95;1.92;;;;;;;;;;5059202;28;20037;-81
2022/05/09 11:36:38;;;;;;;10.25;2.50;;;;;;;;;;5069354;28;20029;-80
2022/05/09 11:39:16;;;;;;;8.48;1.90;;;;;;;;;;5068268;28;20033;-80
2022/05/09 11:41:43;;;;;;;7.07;2.00;;;;;;;;;;5072567;28;20029;-80
2022/05/09 11:44:15;;;;;;;7.93;2.03;;;;;;;;;;5061269;28;20095;-81
2022/05/09 11:47:00;;;;;;;7.97;2.33;;;;;;;;;;5068512;28;20024;-81
2022/05/09 11:49:47;;;;;;;7.50;1.73;;;;;;;;;;5050387;28;20400;-80
2022/05/09 11:52:31;;;;;;;6.80;1.85;;;;;;;;;;5046828;28;20064;-82
2022/05/09 11:55:06;;;;;;;11.18;2.40;;;;;;;;;;5060519;28;20025;-80
2022/05/09 11:57:38;;;;;;;8.15;1.80;;;;;;;;;;5047603;28;20060;-80
2022/05/09 12:00:05;;;;;;;;;;;;;;;;;;5064753;28;20033;-80
2022/05/09 12:02:44;;;;;;;5.78;2.00;;;;;;;;;;5059223;28;19913;-80
2022/05/09 12:05:35;;;;;;;8.00;2.03;;;;;;;;;;5061515;28;20044;-80
2022/05/09 12:08:04;;;;;;;6.70;1.73;;;;;;;;;;5063482;28;20036;-80
2022/05/09 12:10:32;;;;;;;10.75;2.40;;;;;;;;;;5059263;28;20041;-80
2022/05/09 12:13:04;;;;;;;12.52;2.38;;;;;;;;;;5062930;28;20056;-80
2022/05/09 12:15:30;;;;;;;6.22;1.98;;;;;;;;;;5056299;28;20020;-79
2022/05/09 12:17:57;;;;;;;7.10;1.80;;;;;;;;;;5063421;28;20109;-80
2022/05/09 12:20:26;;;;;;;4.15;1.83;;;;;;;;;;5052477;28;20026;-79
2022/05/09 12:22:53;;;;;;;5.88;1.48;;;;;;;;;;5043313;28;20033;-80
2022/05/09 12:25:35;;;;;;;7.72;1.90;;;;;;;;;;5041709;28;20032;-80
2022/05/09 12:28:03;;;;;;;;;;;;;;;;;;5063420;28;20051;-79
2022/05/09 12:30:44;;;;;;;6.82;1.80;;;;;;;;;;5030440;28;19928;-79
2022/05/09 12:33:22;;;;;;;6.60;2.10;;;;;;;;;;5047583;28;20025;-79
2022/05/09 12:35:49;;;;;;;9.90;1.92;;;;;;;;;;5059516;28;20079;-79
2022/05/09 12:38:20;;;;;;;8.02;1.85;;;;;;;;;;5054248;28;20028;-79
2022/05/09 12:40:46;;;;;;;8.25;1.90;;;;;;;;;;5045905;28;20053;-80
2022/05/09 12:43:13;;;;;;;7.57;1.83;;;;;;;;;;5046066;28;20477;-80
2022/05/09 12:45:40;;;;;;;6.45;1.50;;;;;;;;;;5069344;28;20033;-80
2022/05/09 12:48:09;;;;;;;8.40;1.90;;;;;;;;;;5031206;28;20026;-80
2022/05/09 12:50:39;;;;;;;6.43;1.65;;;;;;;;;;5050782;28;20409;-79
2022/05/09 12:53:07;;;;;;;8.40;1.92;;;;;;;;;;5048813;28;20040;-79
2022/05/09 12:55:57;;;;;;;6.00;1.20;;;;;;;;;;5043060;28;20025;-79
2022/05/09 12:58:24;;;;;;;9.27;1.65;;;;;;;;;;5038956;28;20295;-79
2022/05/09 13:00:55;;;;;;;5.38;1.48;;;;;;;;;;5049847;28;20031;-79
2022/05/09 13:03:21;;;;;;;6.60;1.40;;;;;;;;;;5076100;28;20028;-79
2022/05/09 13:05:47;;;;;;;9.05;1.67;;;;;;;;;;5053420;28;20348;-80
2022/05/09 13:08:14;;;;;;;5.10;1.48;;;;;;;;;;5030000;28;20033;-78
2022/05/09 13:10:54;;;;;;;6.32;1.73;;;;;;;;;;5033795;28;20076;-81
2022/05/09 13:13:26;;;;;;;7.32;1.48;;;;;;;;;;5054312;28;20021;-80
2022/05/09 13:15:52;;;;;;;7.07;1.80;;;;;;;;;;5060150;28;20021;-80
2022/05/09 13:18:25;;;;;;;8.23;2.03;;;;;;;;;;5054522;28;20024;-80
2022/05/09 13:20:52;;;;;;;9.80;3.33;;;;;;;;;;5036528;28;20063;-80
2022/05/09 13:23:24;;;;;;;4.45;1.88;;;;;;;;;;5036328;28;20035;-80
2022/05/09 13:25:51;;;;;;;6.03;1.70;;;;;;;;;;5039900;28;20033;-80
2022/05/09 13:28:22;;;;;;;8.35;1.33;;;;;;;;;;5044675;28;20032;-80
2022/05/09 13:30:55;;;;;;;6.18;1.65;;;;;;;;;;5047868;28;20032;-80
2022/05/09 13:33:25;;;;;;;8.95;1.50;;;;;;;;;;5050640;28;20737;-79
2022/05/09 13:35:53;;;;;;;5.63;1.95;;;;;;;;;;5046943;28;20033;-78
2022/05/09 13:38:26;;;;;;;6.93;1.63;;;;;;;;;;5034273;28;20048;-75
2022/05/09 13:40:53;;;;;;;6.13;1.42;;;;;;;;;;5036182;28;20763;-74
2022/05/09 13:43:27;;;;;;;9.00;1.52;;;;;;;;;;5041935;28;20025;-75
2022/05/09 13:46:08;;;;;;;8.75;1.60;;;;;;;;;;5035775;28;20447;-73
2022/05/09 13:48:35;;;;;;;4.47;1.45;;;;;;;;;;5041710;28;20128;-73
2022/05/09 13:51:01;;;;;;;4.47;1.17;;;;;;;;;;5038953;28;20048;-73
2022/05/09 13:53:29;;;;;;;9.00;1.33;;;;;;;;;;5043377;28;20094;-73
2022/05/09 13:55:57;;;;;;;8.45;1.50;;;;;;;;;;5039024;28;20025;-73
2022/05/09 13:58:25;;;;;;;9.27;1.55;;;;;;;;;;5034862;28;20439;-73
2022/05/09 14:00:52;;;;;;;12.68;6.95;;;;;;;;;;5040348;28;20047;-76
2022/05/09 14:03:21;;;;;;;22.85;14.45;;;;;;;;;;5023291;28;20036;-76
2022/05/09 14:05:48;;;;;;;10.48;1.60;;;;;;;;;;5041476;28;20029;-75
2022/05/09 14:08:15;;;;;;;6.32;1.52;;;;;;;;;;5041236;28;20028;-79
2022/05/09 14:10:43;;;;;;;15.18;3.67;;;;;;;;;;5040813;28;20033;-78
2022/05/09 14:13:31;;;;;;;10.65;3.67;;;;;;;;;;5041979;28;20033;-77
2022/05/09 14:15:58;;;;;;;7.75;1.58;;;;;;;;;;5034778;28;20595;-77
2022/05/09 14:18:35;;;;;;;7.05;1.40;;;;;;;;;;5039023;28;20092;-77
2022/05/09 14:21:03;;;;;;;7.03;1.67;;;;;;;;;;5041331;28;20366;-77
2022/05/09 14:23:29;;;;;;;7.40;1.58;;;;;;;;;;5020739;28;20029;-77
2022/05/09 14:31:38;;;;;;;6.85;1.67;;;;;;;;;;5060447;28;20090;-74
2022/05/09 14:34:31;;;;;;;7.38;1.55;;;;;;;;;;5046336;28;20017;-74
2022/05/09 14:37:09;;;;;;;6.57;1.75;;;;;;;;;;5048832;28;20045;-74
2022/05/09 14:39:39;;;;;;;6.72;1.30;;;;;;;;;;5053244;28;20120;-74
2022/05/09 14:42:06;;;;;;;6.97;1.95;;;;;;;;;;5044545;28;20095;-74
2022/05/09 14:44:32;;;;;;;5.60;1.20;;;;;;;;;;5050704;28;20033;-74
2022/05/09 14:47:07;;;;;;;4.25;1.75;;;;;;;;;;5070222;28;20575;-74
2022/05/09 14:50:07;;;;;;;6.93;1.23;;;;;;;;;;5063085;28;20455;-74
2022/05/09 14:52:40;;;;;;;9.02;1.83;;;;;;;;;;5036188;28;20059;-74
2022/05/09 14:58:05;;;;;;;7.40;1.48;;;;;;;;;;5046396;28;20078;-74
2022/05/09 15:00:33;;;;;;;6.30;1.20;;;;;;;;;;5057186;28;20635;-74
2022/05/09 15:03:04;;;;;;;12.65;1.55;;;;;;;;;;5056181;28;20431;-74
2022/05/09 15:05:31;;;;;;;9.43;1.33;;;;;;;;;;5056575;28;20492;-74
2022/05/09 15:07:58;;;;;;;8.52;1.55;;;;;;;;;;5018683;28;20060;-74
2022/05/09 15:10:26;;;;;;;5.95;1.63;;;;;;;;;;5046250;28;20087;-74